Time;durP1;ratioP1;P1;durP2;ratioP2;P2;SDS_P1;SDS_P2;PMS_P1;PMS_P2;Temp;Humidity;BMP_temperature;BMP_pressure;BME280_temperature;BME280_humidity;BME280_pressure;Samples;Min_cycle;Max_cycle;Signal;HPM_P1;HPM_P2
2022/08/16 00:01:58;;;;;;;4.43;3.30;;;29.90;42.90;;;;;;5082076;28;20044;-61
2022/08/16 00:04:26;;;;;;;8.73;4.07;;;29.80;43.00;;;;;;5083675;28;20070;-61
2022/08/16 00:06:53;;;;;;;4.53;3.60;;;29.70;43.10;;;;;;5084926;28;20484;-61
2022/08/16 00:09:21;;;;;;;4.57;4.28;;;29.60;43.20;;;;;;5070897;28;20408;-60
2022/08/16 00:11:49;;;;;;;3.92;3.60;;;29.60;43.30;;;;;;5069418;28;20056;-60
2022/08/16 00:14:29;;;;;;;3.38;3.17;;;29.50;43.50;;;;;;5086408;28;20036;-60
2022/08/16 00:16:56;;;;;;;6.32;3.40;;;29.40;43.50;;;;;;5076952;28;20322;-61
2022/08/16 00:19:27;;;;;;;3.88;3.60;;;29.30;43.60;;;;;;5070552;28;20040;-61
2022/08/16 00:21:55;;;;;;;6.03;3.47;;;29.30;43.80;;;;;;5069440;28;20548;-60
2022/08/16 00:24:25;;;;;;;3.67;3.40;;;29.20;43.90;;;;;;5073275;28;20036;-61
2022/08/16 00:26:53;;;;;;;3.60;3.22;;;29.20;44.00;;;;;;5085295;28;20075;-61
2022/08/16 00:29:20;;;;;;;4.30;4.00;;;29.10;44.20;;;;;;5067011;28;20044;-60
2022/08/16 00:31:50;;;;;;;2.95;2.67;;;29.00;44.20;;;;;;5070583;28;20067;-60
2022/08/16 00:34:19;;;;;;;3.50;3.20;;;29.00;44.30;;;;;;5081204;28;20895;-60
2022/08/16 00:36:48;;;;;;;3.97;3.72;;;28.90;44.40;;;;;;5079397;28;20067;-60
2022/08/16 00:39:17;;;;;;;8.27;3.63;;;28.90;44.50;;;;;;5077384;28;20535;-60
2022/08/16 00:41:46;;;;;;;3.42;3.22;;;28.90;44.60;;;;;;5076331;28;20070;-60
2022/08/16 00:44:15;;;;;;;4.32;4.03;;;28.80;44.60;;;;;;5072959;28;20068;-61
2022/08/16 00:46:49;;;;;;;4.45;4.15;;;28.70;44.70;;;;;;5068445;28;20571;-60
2022/08/16 00:49:17;;;;;;;3.22;3.03;;;28.70;44.80;;;;;;5078415;28;20049;-60
2022/08/16 00:51:44;;;;;;;4.50;3.42;;;28.60;44.80;;;;;;5069963;28;20044;-60
2022/08/16 00:54:13;;;;;;;5.88;3.15;;;28.60;44.90;;;;;;5089561;28;20046;-62
2022/08/16 00:56:43;;;;;;;3.55;3.42;;;28.60;45.00;;;;;;5090718;28;20044;-61
2022/08/16 00:59:14;;;;;;;3.78;3.47;;;28.50;45.10;;;;;;5072376;28;20081;-61
2022/08/16 01:01:43;;;;;;;3.08;2.83;;;28.50;45.30;;;;;;5086299;28;20037;-61
2022/08/16 01:04:11;;;;;;;6.05;2.80;;;28.40;45.20;;;;;;5090422;28;20040;-61
2022/08/16 01:06:39;;;;;;;3.50;3.30;;;28.40;45.30;;;;;;5072082;28;20051;-61
2022/08/16 01:09:08;;;;;;;3.10;3.00;;;28.30;45.30;;;;;;5086175;28;20063;-61
2022/08/16 01:11:38;;;;;;;3.88;3.58;;;28.30;45.90;;;;;;5089962;28;20064;-61
2022/08/16 01:14:12;;;;;;;2.83;2.63;;;28.30;45.50;;;;;;5087387;28;20064;-60
2022/08/16 01:16:42;;;;;;;3.63;3.20;;;28.30;45.50;;;;;;5080847;28;20147;-62
2022/08/16 01:19:18;;;;;;;4.72;3.00;;;28.20;45.50;;;;;;5075774;28;20065;-61
2022/08/16 01:21:53;;;;;;;5.32;4.55;;;28.20;45.60;;;;;;5058991;28;20055;-61
2022/08/16 01:24:32;;;;;;;3.37;3.27;;;28.20;45.70;;;;;;5074869;28;20052;-62
2022/08/16 01:27:06;;;;;;;3.58;3.47;;;28.20;45.80;;;;;;5052871;28;20062;-64
2022/08/16 01:29:39;;;;;;;7.22;3.17;;;28.10;45.80;;;;;;5059170;28;20033;-62
2022/08/16 01:32:06;;;;;;;3.35;2.70;;;28.10;45.90;;;;;;5070683;28;20082;-62
2022/08/16 01:34:33;;;;;;;7.20;3.22;;;28.00;45.80;;;;;;5070767;28;20146;-62
2022/08/16 01:37:03;;;;;;;6.00;3.28;;;28.00;45.90;;;;;;5070380;28;20052;-62
2022/08/16 01:39:33;;;;;;;3.60;3.38;;;28.00;46.00;;;;;;5069132;28;20048;-62
2022/08/16 01:42:01;;;;;;;5.53;3.83;;;28.00;46.00;;;;;;5082186;28;20036;-61
2022/08/16 01:44:29;;;;;;;5.55;3.83;;;28.00;46.10;;;;;;5064464;28;20048;-63
2022/08/16 01:46:57;;;;;;;5.05;2.95;;;27.90;46.00;;;;;;5071670;28;20119;-63
2022/08/16 01:49:26;;;;;;;10.85;3.05;;;27.90;46.10;;;;;;5090061;28;20048;-63
2022/08/16 01:51:57;;;;;;;4.45;4.05;;;27.90;46.10;;;;;;5069489;28;20513;-61
2022/08/16 01:54:38;;;;;;;5.95;2.92;;;27.90;46.20;;;;;;5065730;28;20048;-63
2022/08/16 01:57:07;;;;;;;3.10;2.67;;;27.80;46.20;;;;;;5071527;28;20036;-63
2022/08/16 01:59:36;;;;;;;3.35;2.28;;;27.80;46.20;;;;;;5088680;28;20118;-62
2022/08/16 02:02:05;;;;;;;2.55;2.35;;;27.80;46.20;;;;;;5056538;28;20550;-62
2022/08/16 02:04:33;;;;;;;4.38;3.42;;;27.80;46.30;;;;;;5058934;28;20048;-62
2022/08/16 02:07:04;;;;;;;2.83;2.63;;;27.80;46.30;;;;;;5070999;28;20055;-63
2022/08/16 02:09:32;;;;;;;3.80;3.47;;;27.80;46.30;;;;;;5071094;28;20054;-63
2022/08/16 02:12:00;;;;;;;2.72;2.47;;;27.70;46.30;;;;;;5070920;28;20048;-61
2022/08/16 02:14:30;;;;;;;3.50;3.20;;;27.80;46.40;;;;;;5071466;28;20567;-63
2022/08/16 02:17:02;;;;;;;3.85;2.72;;;27.70;46.40;;;;;;5064882;28;20139;-62
2022/08/16 02:19:31;;;;;;;2.58;2.38;;;27.70;46.50;;;;;;5064349;28;20051;-62
2022/08/16 02:22:01;;;;;;;6.78;3.08;;;27.70;46.50;;;;;;5073422;28;20049;-62
2022/08/16 02:24:28;;;;;;;3.15;2.88;;;27.60;46.50;;;;;;5052939;28;20425;-62
2022/08/16 02:26:56;;;;;;;3.65;2.85;;;27.60;46.50;;;;;;5070904;28;20048;-63
2022/08/16 02:29:26;;;;;;;4.70;3.22;;;27.60;46.60;;;;;;5071290;28;20044;-62
2022/08/16 02:31:53;;;;;;;2.92;2.55;;;27.60;46.60;;;;;;5086976;28;20370;-62
2022/08/16 02:34:21;;;;;;;5.15;2.63;;;27.60;46.70;;;;;;5073477;28;20044;-63
2022/08/16 02:36:49;;;;;;;3.17;2.92;;;27.60;46.80;;;;;;5064141;28;20060;-62
2022/08/16 02:39:19;;;;;;;3.10;2.15;;;27.60;46.80;;;;;;5062214;28;20043;-62
2022/08/16 02:41:48;;;;;;;3.40;3.08;;;27.60;46.90;;;;;;5068236;28;20045;-63
2022/08/16 02:44:16;;;;;;;3.47;2.28;;;27.50;46.90;;;;;;5072608;28;20072;-63
2022/08/16 02:46:47;;;;;;;4.65;3.03;;;27.50;46.90;;;;;;5073489;28;20093;-62
2022/08/16 02:49:14;;;;;;;4.80;3.60;;;27.50;47.00;;;;;;5088308;28;20075;-62
2022/08/16 02:51:43;;;;;;;4.43;2.75;;;27.50;47.10;;;;;;5079739;28;20809;-63
2022/08/16 02:54:14;;;;;;;4.93;2.28;;;27.50;47.10;;;;;;5066517;28;20122;-62
2022/08/16 02:56:43;;;;;;;3.95;3.05;;;27.50;47.10;;;;;;5074695;28;20040;-62
2022/08/16 02:59:11;;;;;;;2.50;2.30;;;27.50;47.10;;;;;;5073868;28;20127;-63
2022/08/16 03:01:40;;;;;;;5.30;2.67;;;27.40;47.20;;;;;;5060627;28;20125;-63
2022/08/16 03:04:17;;;;;;;3.17;2.88;;;27.50;47.30;;;;;;5057231;28;20127;-62
2022/08/16 03:06:44;;;;;;;4.20;2.45;;;27.40;47.30;;;;;;5069882;28;20048;-63
2022/08/16 03:09:20;;;;;;;3.17;2.72;;;27.40;47.40;;;;;;5056445;28;20052;-63
2022/08/16 03:11:52;;;;;;;3.30;3.00;;;27.40;47.50;;;;;;5074036;28;20151;-63
2022/08/16 03:14:19;;;;;;;3.58;2.67;;;27.40;47.60;;;;;;5088200;28;20040;-63
2022/08/16 03:16:47;;;;;;;10.68;3.22;;;27.40;47.60;;;;;;5056666;28;20424;-63
2022/08/16 03:19:15;;;;;;;4.07;3.00;;;27.40;47.70;;;;;;5073294;28;20585;-62
2022/08/16 03:21:46;;;;;;;3.10;2.45;;;27.40;47.80;;;;;;5060380;28;20048;-61
2022/08/16 03:24:13;;;;;;;2.33;2.22;;;27.40;47.90;;;;;;5060390;28;20118;-62
2022/08/16 03:26:40;;;;;;;4.13;3.30;;;27.40;47.90;;;;;;5083210;28;20051;-63
2022/08/16 03:29:07;;;;;;;4.60;3.67;;;27.40;47.90;;;;;;5072213;28;20508;-63
2022/08/16 03:31:35;;;;;;;3.40;3.10;;;27.40;48.00;;;;;;5046501;28;20048;-62
2022/08/16 03:34:02;;;;;;;3.55;3.28;;;27.40;48.00;;;;;;5050245;28;20059;-62
2022/08/16 03:36:29;;;;;;;3.15;3.00;;;27.40;48.20;;;;;;5068418;28;20596;-63
2022/08/16 03:39:00;;;;;;;9.13;3.00;;;27.30;48.20;;;;;;5065661;28;20052;-62
2022/08/16 03:41:28;;;;;;;3.97;3.25;;;27.30;48.30;;;;;;5062838;28;20077;-63
2022/08/16 03:43:57;;;;;;;4.53;2.80;;;27.30;48.40;;;;;;5061430;28;20143;-62
2022/08/16 03:46:28;;;;;;;3.70;3.38;;;27.30;48.40;;;;;;5049823;28;20173;-63
2022/08/16 03:48:57;;;;;;;2.95;2.83;;;27.30;48.50;;;;;;5064992;28;20508;-63
2022/08/16 03:51:24;;;;;;;3.65;3.38;;;27.30;48.60;;;;;;5055123;28;20044;-63
2022/08/16 03:53:56;;;;;;;3.63;3.45;;;27.20;48.60;;;;;;5065543;28;20772;-61
2022/08/16 03:56:26;;;;;;;3.10;2.90;;;27.30;48.80;;;;;;5068936;28;20044;-63
2022/08/16 03:58:55;;;;;;;4.18;3.00;;;27.30;48.80;;;;;;5059959;28;20106;-63
2022/08/16 04:01:25;;;;;;;3.05;2.75;;;27.20;48.80;;;;;;5053671;28;20123;-62
2022/08/16 04:03:53;;;;;;;2.78;2.25;;;27.20;48.80;;;;;;5069281;28;20044;-61
2022/08/16 04:06:21;;;;;;;7.55;3.55;;;27.20;48.80;;;;;;5069287;28;20044;-62
2022/08/16 04:08:49;;;;;;;5.50;2.35;;;27.20;48.80;;;;;;5069262;28;20127;-62
2022/08/16 04:11:16;;;;;;;4.10;2.05;;;27.20;48.80;;;;;;5068747;28;20098;-62
2022/08/16 04:13:46;;;;;;;3.25;2.22;;;27.20;48.90;;;;;;5059496;28;20394;-62
2022/08/16 04:16:16;;;;;;;3.00;2.30;;;27.20;48.80;;;;;;5068034;28;20049;-62
2022/08/16 04:18:44;;;;;;;2.72;2.65;;;27.10;48.80;;;;;;5059938;28;20063;-61
2022/08/16 04:21:12;;;;;;;2.28;2.08;;;27.10;48.80;;;;;;5052365;28;20086;-61
2022/08/16 04:23:58;;;;;;;4.75;1.90;;;27.10;48.90;;;;;;5087300;28;20077;-61
2022/08/16 04:26:26;;;;;;;2.72;2.53;;;27.10;48.90;;;;;;5068430;28;20120;-62
2022/08/16 04:28:54;;;;;;;2.22;2.05;;;27.10;49.00;;;;;;5055983;28;20040;-62
2022/08/16 04:31:22;;;;;;;2.40;1.90;;;27.00;49.00;;;;;;5055536;28;20048;-62
2022/08/16 04:33:49;;;;;;;2.58;2.40;;;27.00;49.00;;;;;;5058828;28;20033;-62
2022/08/16 04:36:16;;;;;;;2.42;2.25;;;27.00;49.10;;;;;;5049577;28;20067;-62
2022/08/16 04:38:44;;;;;;;3.95;1.85;;;27.00;49.10;;;;;;5049687;28;20041;-62
2022/08/16 04:41:11;;;;;;;4.40;2.35;;;27.00;49.20;;;;;;5049481;28;20048;-62
2022/08/16 04:43:38;;;;;;;2.28;2.08;;;27.00;49.20;;;;;;5056936;28;20044;-61
2022/08/16 04:46:09;;;;;;;2.65;1.85;;;27.00;49.20;;;;;;5058356;28;20529;-62
2022/08/16 04:48:40;;;;;;;2.88;2.78;;;26.90;49.20;;;;;;5056050;28;20040;-62
2022/08/16 04:51:11;;;;;;;3.42;1.90;;;26.90;49.30;;;;;;5077847;28;20040;-62
2022/08/16 04:53:43;;;;;;;2.13;2.03;;;26.90;49.40;;;;;;5055861;28;20102;-62
2022/08/16 04:56:10;;;;;;;1.67;1.58;;;26.90;49.40;;;;;;5056493;28;20055;-62
2022/08/16 04:58:37;;;;;;;1.73;1.58;;;26.90;49.50;;;;;;5086568;28;20123;-62
2022/08/16 05:01:04;;;;;;;1.75;1.70;;;26.90;49.50;;;;;;5067526;28;20048;-62
2022/08/16 05:03:34;;;;;;;2.92;1.75;;;26.90;49.60;;;;;;5061064;28;20113;-62
2022/08/16 05:06:01;;;;;;;5.15;1.63;;;26.80;49.60;;;;;;5049231;28;20587;-62
2022/08/16 05:08:29;;;;;;;3.42;2.22;;;26.80;49.60;;;;;;5053212;28;20080;-62
2022/08/16 05:11:05;;;;;;;2.97;2.42;;;26.80;49.60;;;;;;5063334;28;20044;-62
2022/08/16 05:13:35;;;;;;;5.10;2.25;;;26.80;49.70;;;;;;5050636;28;20123;-62
2022/08/16 05:16:04;;;;;;;4.28;1.60;;;26.80;49.70;;;;;;5059088;28;20396;-62
2022/08/16 05:18:34;;;;;;;1.70;1.60;;;26.80;49.70;;;;;;5057327;28;20428;-62
2022/08/16 05:21:01;;;;;;;3.03;2.28;;;26.80;49.80;;;;;;5054361;28;20145;-63
2022/08/16 05:23:29;;;;;;;3.25;1.55;;;26.80;49.80;;;;;;5045943;28;20117;-63
2022/08/16 05:25:58;;;;;;;6.15;2.58;;;26.80;49.90;;;;;;5059142;28;20040;-61
2022/08/16 05:28:25;;;;;;;2.38;1.60;;;26.80;49.90;;;;;;5068150;28;20046;-62
2022/08/16 05:30:55;;;;;;;1.92;1.63;;;26.80;49.90;;;;;;5073959;28;20043;-62
2022/08/16 05:33:25;;;;;;;3.22;1.23;;;26.80;50.00;;;;;;5048204;28;20483;-62
2022/08/16 05:35:55;;;;;;;2.72;1.50;;;26.80;49.90;;;;;;5068170;28;20044;-61
2022/08/16 05:38:37;;;;;;;5.43;1.90;;;26.80;50.00;;;;;;5045184;28;20267;-62
2022/08/16 05:41:07;;;;;;;2.05;1.95;;;26.80;49.90;;;;;;5065086;28;20101;-62
2022/08/16 05:43:38;;;;;;;4.10;1.77;;;26.80;49.90;;;;;;5058416;28;20041;-62
2022/08/16 05:46:05;;;;;;;1.20;1.20;;;26.80;50.30;;;;;;5082417;28;20826;-62
2022/08/16 05:48:32;;;;;;;4.95;1.58;;;26.80;49.60;;;;;;5089947;28;20072;-61
2022/08/16 05:51:08;;;;;;;2.40;1.13;;;26.80;50.10;;;;;;5068558;28;20052;-63
2022/08/16 05:53:35;;;;;;;1.20;1.13;;;26.80;49.50;;;;;;5063784;28;20044;-63
2022/08/16 05:56:07;;;;;;;2.35;1.73;;;26.80;49.50;;;;;;5070473;28;20048;-63
2022/08/16 05:58:38;;;;;;;2.63;1.00;;;26.80;49.50;;;;;;5057277;28;20402;-63
2022/08/16 06:01:06;;;;;;;1.50;1.23;;;26.80;49.40;;;;;;5058826;28;20067;-62
2022/08/16 06:03:36;;;;;;;1.50;1.17;;;26.80;49.40;;;;;;5057400;28;20068;-63
2022/08/16 06:06:11;;;;;;;2.30;0.98;;;26.80;49.40;;;;;;5063578;28;20056;-63
2022/08/16 06:08:38;;;;;;;5.38;1.27;;;26.80;49.40;;;;;;5068254;28;20056;-63
2022/08/16 06:11:08;;;;;;;6.20;1.45;;;26.80;49.40;;;;;;5068066;28;20079;-63
2022/08/16 06:13:36;;;;;;;1.95;1.40;;;26.80;49.30;;;;;;5056559;28;20538;-63
2022/08/16 06:16:04;;;;;;;3.35;1.52;;;26.80;49.20;;;;;;5077263;28;20122;-63
2022/08/16 06:18:32;;;;;;;4.70;2.60;;;26.80;49.20;;;;;;5057713;28;20054;-63
2022/08/16 06:20:59;;;;;;;3.33;1.48;;;26.80;49.30;;;;;;5089483;28;20142;-63
2022/08/16 06:23:28;;;;;;;3.97;1.75;;;26.80;49.30;;;;;;5061913;28;20070;-63
2022/08/16 06:25:59;;;;;;;4.85;1.50;;;26.90;49.50;;;;;;5061531;28;20068;-64
2022/08/16 06:28:31;;;;;;;1.77;1.25;;;26.90;49.50;;;;;;5064908;28;20036;-62
2022/08/16 06:30:59;;;;;;;7.63;1.52;;;26.90;49.50;;;;;;5072489;28;20128;-63
2022/08/16 06:33:27;;;;;;;1.92;1.50;;;26.90;49.50;;;;;;5064722;28;20048;-65
2022/08/16 06:35:56;;;;;;;5.68;2.03;;;26.90;49.50;;;;;;5068828;28;20920;-63
2022/08/16 06:38:23;;;;;;;2.78;1.95;;;26.90;49.60;;;;;;5068114;28;20094;-63
2022/08/16 06:40:52;;;;;;;7.75;1.90;;;27.00;49.60;;;;;;5084039;28;20051;-69
2022/08/16 06:43:20;;;;;;;6.63;2.05;;;27.00;49.70;;;;;;5062832;28;20143;-51
2022/08/16 06:45:50;;;;;;;8.07;2.00;;;27.00;49.70;;;;;;5059529;28;20047;-53
2022/08/16 06:48:25;;;;;;;6.57;1.50;;;27.00;49.70;;;;;;5079768;28;20040;-60
2022/08/16 06:50:53;;;;;;;5.55;2.10;;;27.10;49.80;;;;;;5083828;28;20048;-74
2022/08/16 06:53:21;;;;;;;2.25;0.65;;;27.10;49.70;;;;;;5049778;28;20451;-67
2022/08/16 06:55:59;;;;;;;1.92;1.38;;;27.20;49.70;;;;;;5068463;28;20128;-57
2022/08/16 06:58:37;;;;;;;1.85;1.08;;;27.20;49.70;;;;;;5065592;28;20044;-75
2022/08/16 07:01:09;;;;;;;2.88;1.70;;;27.30;49.70;;;;;;5061621;28;20044;-63
2022/08/16 07:03:37;;;;;;;3.90;1.33;;;27.40;49.80;;;;;;5063308;28;20062;-56
2022/08/16 07:06:07;;;;;;;1.15;1.08;;;27.30;49.80;;;;;;5079892;28;20036;-63
2022/08/16 07:08:42;;;;;;;2.50;1.60;;;27.40;49.90;;;;;;5058230;28;20401;-59
2022/08/16 07:11:11;;;;;;;1.75;1.25;;;27.40;49.80;;;;;;5063685;28;20056;-70
2022/08/16 07:13:39;;;;;;;3.33;1.45;;;27.50;50.10;;;;;;5051409;28;20052;-72
2022/08/16 07:16:13;;;;;;;2.22;1.65;;;27.50;50.00;;;;;;5080911;28;20036;-72
2022/08/16 07:18:42;;;;;;;7.30;1.77;;;27.50;49.90;;;;;;5079749;28;20056;-58
2022/08/16 07:21:11;;;;;;;2.70;2.08;;;27.60;49.90;;;;;;5065496;28;20047;-65
2022/08/16 07:23:40;;;;;;;6.68;1.83;;;27.60;49.90;;;;;;5051543;28;20071;-68
2022/08/16 07:26:17;;;;;;;5.03;1.73;;;27.70;49.80;;;;;;5081762;28;20056;-62
2022/08/16 07:28:45;;;;;;;2.67;0.90;;;27.70;49.70;;;;;;5070072;28;20036;-64
2022/08/16 07:31:12;;;;;;;1.75;1.65;;;27.70;49.60;;;;;;5059849;28;20044;-62
2022/08/16 07:33:44;;;;;;;2.83;1.58;;;27.80;49.60;;;;;;5083613;28;20091;-63
2022/08/16 07:36:14;;;;;;;3.78;1.15;;;27.80;49.60;;;;;;5079945;28;20401;-62
2022/08/16 07:38:45;;;;;;;5.93;1.25;;;27.90;49.50;;;;;;5071251;28;20048;-63
2022/08/16 07:41:15;;;;;;;4.03;1.73;;;27.90;49.40;;;;;;5083680;28;20710;-63
2022/08/16 07:43:51;;;;;;;3.65;1.80;;;28.00;49.40;;;;;;5076943;28;20114;-67
2022/08/16 07:46:19;;;;;;;4.20;1.65;;;28.10;49.30;;;;;;5087540;28;20061;-66
2022/08/16 07:48:46;;;;;;;1.67;1.42;;;28.10;49.20;;;;;;5066656;28;20044;-62
2022/08/16 07:51:14;;;;;;;5.47;1.60;;;28.20;49.20;;;;;;5063888;28;20058;-64
2022/08/16 07:53:43;;;;;;;2.47;1.05;;;28.20;49.10;;;;;;5067350;28;20044;-63
2022/08/16 07:56:11;;;;;;;9.55;1.45;;;28.30;49.10;;;;;;5061843;28;20505;-63
2022/08/16 07:58:41;;;;;;;2.25;1.15;;;28.40;49.00;;;;;;5078890;28;20044;-63
2022/08/16 08:01:12;;;;;;;2.40;1.05;;;28.40;48.80;;;;;;5074037;28;20497;-66
2022/08/16 08:03:47;;;;;;;5.07;1.95;;;28.50;48.70;;;;;;5090259;28;20036;-63
2022/08/16 08:06:15;;;;;;;5.43;0.77;;;28.60;48.70;;;;;;5069178;28;20394;-65
2022/08/16 08:08:42;;;;;;;2.25;1.20;;;28.60;48.50;;;;;;5062351;28;20115;-64
2022/08/16 08:11:10;;;;;;;3.45;1.35;;;28.60;48.30;;;;;;5076444;28;20064;-64
2022/08/16 08:13:37;;;;;;;5.78;1.17;;;28.70;48.20;;;;;;5073492;28;20453;-62
2022/08/16 08:16:08;;;;;;;1.50;0.90;;;28.70;48.10;;;;;;5069841;28;20093;-71
2022/08/16 08:18:36;;;;;;;4.00;1.13;;;28.80;47.90;;;;;;5075446;28;20043;-65
2022/08/16 08:21:03;;;;;;;5.05;1.27;;;28.80;47.80;;;;;;5075405;28;20028;-63
2022/08/16 08:23:35;;;;;;;5.45;1.55;;;28.90;47.80;;;;;;5073187;28;20045;-63
2022/08/16 08:26:05;;;;;;;4.97;1.10;;;29.00;47.70;;;;;;5080669;28;20028;-63
2022/08/16 08:28:34;;;;;;;3.63;1.10;;;29.10;47.60;;;;;;5081456;28;20028;-64
2022/08/16 08:31:07;;;;;;;3.65;1.70;;;29.20;47.50;;;;;;5042579;28;20446;-64
2022/08/16 08:33:39;;;;;;;1.25;1.08;;;29.30;47.40;;;;;;5068618;28;20132;-64
2022/08/16 08:36:10;;;;;;;4.43;0.85;;;29.30;47.20;;;;;;5067934;28;20051;-65
2022/08/16 08:38:38;;;;;;;3.08;0.82;;;29.40;47.10;;;;;;5071178;28;20124;-63
2022/08/16 08:41:07;;;;;;;2.67;0.93;;;29.40;46.90;;;;;;5070814;28;20495;-61
2022/08/16 08:43:34;;;;;;;2.78;0.77;;;29.50;46.80;;;;;;5061388;28;20060;-66
2022/08/16 08:46:03;;;;;;;1.13;0.93;;;29.60;46.70;;;;;;5065084;28;20036;-64
2022/08/16 08:48:32;;;;;;;1.67;0.93;;;29.60;46.50;;;;;;5080594;28;20072;-67
2022/08/16 08:51:01;;;;;;;3.58;0.93;;;29.70;46.20;;;;;;5053750;28;20060;-68
2022/08/16 08:53:28;;;;;;;4.25;1.05;;;29.80;46.10;;;;;;5075213;28;20061;-67
2022/08/16 08:55:56;;;;;;;4.22;0.70;;;29.80;45.80;;;;;;5075528;28;20063;-69
2022/08/16 08:58:23;;;;;;;3.33;1.20;;;29.80;45.60;;;;;;5080390;28;20504;-63
2022/08/16 09:01:04;;;;;;;1.73;0.80;;;29.90;45.50;;;;;;5061398;28;20067;-67
2022/08/16 09:03:32;;;;;;;3.08;1.13;;;29.90;45.30;;;;;;5072291;28;20051;-63
2022/08/16 09:06:00;;;;;;;4.75;1.02;;;30.00;45.20;;;;;;5064817;28;20044;-66
2022/08/16 09:08:30;;;;;;;4.32;1.58;;;30.10;45.10;;;;;;5062827;28;20551;-71
2022/08/16 09:11:02;;;;;;;1.35;0.60;;;30.10;45.00;;;;;;5077093;28;20067;-65
2022/08/16 09:13:31;;;;;;;6.45;0.90;;;30.20;44.90;;;;;;5076169;28;20119;-66
2022/08/16 09:15:59;;;;;;;2.72;1.05;;;30.20;44.60;;;;;;5068817;28;20037;-71
2022/08/16 09:18:28;;;;;;;6.18;0.70;;;30.20;44.40;;;;;;5075769;28;20040;-66
2022/08/16 09:20:58;;;;;;;2.30;1.13;;;30.30;44.50;;;;;;5089171;28;20504;-70
2022/08/16 09:23:25;;;;;;;3.55;1.70;;;30.30;44.50;;;;;;5087082;28;20115;-67
2022/08/16 09:25:53;;;;;;;7.05;1.00;;;30.30;44.40;;;;;;5074216;28;20144;-60
2022/08/16 09:28:20;;;;;;;4.55;1.13;;;30.40;44.20;;;;;;5097166;28;20044;-65
2022/08/16 09:30:52;;;;;;;1.85;0.73;;;30.40;44.70;;;;;;5077623;28;20048;-69
2022/08/16 09:33:20;;;;;;;0.70;0.45;;;30.40;43.90;;;;;;5086520;28;20103;-63
2022/08/16 09:35:48;;;;;;;2.35;0.93;;;30.50;43.70;;;;;;5087413;28;20039;-63
2022/08/16 09:38:17;;;;;;;2.45;1.30;;;30.60;43.60;;;;;;5090014;28;20169;-62
2022/08/16 09:40:46;;;;;;;2.35;0.50;;;30.60;43.40;;;;;;5086676;28;20072;-61
2022/08/16 09:43:16;;;;;;;1.88;0.60;;;30.60;43.10;;;;;;5090341;28;20040;-58
2022/08/16 09:45:43;;;;;;;2.85;0.98;;;30.70;43.20;;;;;;5085483;28;20048;-61
2022/08/16 09:48:13;;;;;;;3.22;0.85;;;30.80;43.20;;;;;;5070042;28;20043;-64
2022/08/16 09:50:41;;;;;;;12.23;1.23;;;30.80;43.10;;;;;;5083868;28;20052;-61
2022/08/16 09:53:13;;;;;;;4.85;0.82;;;30.80;43.60;;;;;;5076798;28;20044;-64
2022/08/16 09:55:42;;;;;;;4.60;0.50;;;30.90;43.00;;;;;;5087693;28;20059;-64
2022/08/16 09:58:09;;;;;;;1.35;0.80;;;30.90;42.90;;;;;;5088763;28;20042;-56
2022/08/16 10:00:36;;;;;;;3.40;0.75;;;31.00;42.90;;;;;;5082850;28;20044;-58
2022/08/16 10:03:04;;;;;;;2.72;0.70;;;31.10;42.90;;;;;;5084690;28;20040;-62
2022/08/16 10:05:35;;;;;;;5.13;0.52;;;31.10;42.80;;;;;;5085792;28;20044;-62
2022/08/16 10:08:03;;;;;;;3.03;0.55;;;31.20;42.90;;;;;;5093396;28;20036;-59
2022/08/16 10:10:31;;;;;;;2.42;1.02;;;31.30;42.80;;;;;;5092220;28;20044;-61
2022/08/16 10:13:11;;;;;;;1.33;1.23;;;31.50;42.80;;;;;;5099123;28;20040;-61
2022/08/16 10:15:40;;;;;;;1.85;1.17;;;31.60;42.40;;;;;;5074435;28;20040;-56
2022/08/16 10:18:09;;;;;;;3.13;0.98;;;31.80;42.10;;;;;;5092669;28;20052;-56
2022/08/16 10:20:39;;;;;;;1.48;0.45;;;31.90;42.00;;;;;;5073587;28;20070;-59
2022/08/16 10:23:08;;;;;;;2.30;0.60;;;32.00;41.90;;;;;;5091115;28;20040;-57
2022/08/16 10:25:38;;;;;;;3.95;1.13;;;32.00;41.60;;;;;;5091808;28;20131;-58
2022/08/16 10:28:07;;;;;;;5.75;1.35;;;32.00;41.50;;;;;;5096906;28;20036;-59
2022/08/16 10:30:35;;;;;;;3.22;1.05;;;32.10;41.40;;;;;;5091983;28;20042;-55
2022/08/16 10:33:02;;;;;;;5.03;0.73;;;32.10;41.40;;;;;;5072114;28;20057;-51
2022/08/16 10:35:29;;;;;;;2.83;1.38;;;32.10;41.40;;;;;;5087383;28;20051;-49
2022/08/16 10:37:56;;;;;;;1.77;0.70;;;32.10;41.90;;;;;;5091383;28;20079;-55
2022/08/16 10:40:24;;;;;;;4.07;1.00;;;32.10;41.30;;;;;;5096386;28;20047;-61
2022/08/16 10:42:51;;;;;;;0.88;0.80;;;32.10;41.40;;;;;;5097183;28;20075;-62
2022/08/16 10:45:20;;;;;;;4.10;1.27;;;32.10;41.80;;;;;;5098519;28;20028;-61
2022/08/16 10:47:48;;;;;;;2.15;0.60;;;32.10;41.10;;;;;;5073258;28;20075;-61
2022/08/16 10:50:15;;;;;;;1.23;0.40;;;32.10;41.00;;;;;;5088986;28;20091;-61
2022/08/16 10:52:42;;;;;;;1.50;0.98;;;32.00;40.90;;;;;;5099270;28;20032;-61
2022/08/16 10:55:11;;;;;;;3.92;0.98;;;32.00;40.80;;;;;;5095306;28;20061;-62
2022/08/16 10:57:39;;;;;;;4.22;1.60;;;32.10;40.90;;;;;;5096071;28;20044;-63
2022/08/16 11:00:11;;;;;;;4.95;0.60;;;32.10;40.90;;;;;;5094760;28;20032;-61
2022/08/16 11:02:40;;;;;;;1.40;0.43;;;32.10;40.70;;;;;;5087232;28;20052;-62
2022/08/16 11:05:11;;;;;;;1.00;0.63;;;32.00;40.60;;;;;;5078132;28;20040;-62
2022/08/16 11:07:41;;;;;;;4.03;0.80;;;32.00;40.60;;;;;;5069611;28;20090;-63
2022/08/16 11:10:09;;;;;;;4.00;0.88;;;32.00;40.60;;;;;;5088121;28;20040;-62
2022/08/16 11:12:36;;;;;;;2.33;2.17;;;32.00;40.60;;;;;;5083857;28;20127;-62
2022/08/16 11:15:04;;;;;;;2.80;1.05;;;31.90;40.60;;;;;;5080655;28;20116;-62
2022/08/16 11:17:31;;;;;;;1.45;0.65;;;31.90;40.60;;;;;;5092970;28;21619;-62
2022/08/16 11:20:00;;;;;;;4.20;0.68;;;31.90;40.60;;;;;;5067072;28;20048;-64
2022/08/16 11:22:27;;;;;;;0.95;0.88;;;31.90;40.60;;;;;;5084735;28;20048;-63
2022/08/16 11:24:54;;;;;;;4.45;0.82;;;31.90;40.60;;;;;;5085682;28;20562;-64
2022/08/16 11:27:23;;;;;;;2.22;1.05;;;32.00;40.70;;;;;;5090965;28;20048;-63
2022/08/16 11:29:52;;;;;;;2.13;1.40;;;32.00;40.70;;;;;;5090059;28;20044;-63
2022/08/16 11:32:19;;;;;;;1.00;0.45;;;32.00;40.50;;;;;;5085051;28;20048;-63
2022/08/16 11:34:46;;;;;;;2.05;0.73;;;32.00;40.40;;;;;;5088659;28;20878;-63
2022/08/16 11:37:15;;;;;;;9.60;1.73;;;32.10;40.50;;;;;;5082369;28;20052;-63
2022/08/16 11:39:42;;;;;;;5.53;0.95;;;32.10;40.50;;;;;;5089750;28;20048;-60
2022/08/16 11:42:10;;;;;;;6.28;0.68;;;32.10;40.40;;;;;;5084203;28;20048;-62
2022/08/16 11:44:37;;;;;;;4.35;0.80;;;32.10;40.20;;;;;;5083589;28;20531;-58
2022/08/16 11:47:04;;;;;;;23.05;2.30;;;32.10;40.20;;;;;;5064045;28;20098;-66
2022/08/16 11:49:31;;;;;;;3.03;0.70;;;32.10;40.50;;;;;;5086702;28;20040;-66
2022/08/16 11:51:58;;;;;;;1.30;1.20;;;32.10;40.30;;;;;;5083360;28;20045;-67
2022/08/16 11:54:27;;;;;;;1.25;0.80;;;32.00;40.10;;;;;;5088051;28;20042;-66
2022/08/16 11:56:54;;;;;;;3.15;1.00;;;32.10;40.00;;;;;;5093988;28;20477;-66
2022/08/16 11:59:22;;;;;;;3.72;0.60;;;32.10;39.90;;;;;;5083814;28;20044;-67
2022/08/16 12:01:49;;;;;;;1.20;0.98;;;32.10;39.80;;;;;;5086844;28;20095;-66
2022/08/16 12:04:16;;;;;;;1.55;0.50;;;32.10;39.70;;;;;;5086451;28;20040;-66
2022/08/16 12:06:43;;;;;;;2.83;0.73;;;32.10;39.60;;;;;;5085827;28;20539;-64
2022/08/16 12:09:10;;;;;;;1.42;0.70;;;32.10;39.50;;;;;;5090827;28;20044;-62
2022/08/16 12:11:38;;;;;;;10.57;1.27;;;32.10;39.40;;;;;;5085116;28;20666;-64
2022/08/16 12:14:08;;;;;;;6.55;1.05;;;32.10;39.80;;;;;;5083954;28;20051;-64
2022/08/16 12:16:36;;;;;;;8.18;1.05;;;32.20;40.10;;;;;;5075347;28;20044;-61
2022/08/16 12:19:06;;;;;;;4.82;0.57;;;32.10;40.30;;;;;;5082803;28;20119;-58
2022/08/16 12:21:34;;;;;;;2.10;1.02;;;32.20;40.50;;;;;;5071788;28;20762;-58
2022/08/16 12:24:01;;;;;;;4.00;0.65;;;32.10;40.40;;;;;;5074096;28;20501;-66
2022/08/16 12:26:28;;;;;;;1.70;0.68;;;32.20;40.30;;;;;;5082905;28;20125;-63
2022/08/16 12:28:57;;;;;;;2.42;1.00;;;32.20;40.20;;;;;;5085465;28;20126;-65
2022/08/16 12:31:25;;;;;;;2.72;0.98;;;32.20;40.20;;;;;;5080016;28;20040;-61
2022/08/16 12:33:52;;;;;;;3.80;1.48;;;32.20;40.30;;;;;;5079228;28;20046;-61
2022/08/16 12:36:19;;;;;;;4.93;1.98;;;32.20;40.30;;;;;;5083095;28;20072;-58
2022/08/16 12:38:47;;;;;;;2.17;1.05;;;32.20;40.30;;;;;;5078183;28;20047;-60
2022/08/16 12:41:14;;;;;;;3.22;1.25;;;32.20;40.50;;;;;;5077933;28;20048;-57
2022/08/16 12:43:42;;;;;;;1.45;0.82;;;32.30;40.50;;;;;;5063115;28;20420;-62
2022/08/16 12:46:11;;;;;;;5.00;0.90;;;32.30;40.30;;;;;;5072635;28;20072;-58
2022/08/16 12:51:27;;;;;;;3.47;1.00;;;32.20;40.90;;;;;;5079294;28;20044;-59
2022/08/16 12:53:56;;;;;;;0.90;0.70;;;32.30;40.30;;;;;;5083781;28;20130;-58
2022/08/16 12:56:27;;;;;;;1.25;1.08;;;32.30;40.20;;;;;;5090260;28;20036;-59
2022/08/16 12:58:55;;;;;;;0.98;0.90;;;32.30;40.20;;;;;;5084597;28;20072;-58